Flight Track Log - Related Links

Times and Time Zones

All times are in EDT time to prevent confusion due to time zone crossing. See the N589H flight status page for this flight to view local times or setup timezone preferences in your user account.

Time Position Orientation Groundspeed Altitude Reporting Facility
EDT Latitude Longitude Course Direction KTS MPH feet Rate Location/Type
Sat 03:17:10 PM 40.1383 -74.1567 263° West 206 237 2,700  Level New York Center
Sat 03:18:12 PM 40.0978 -74.1922 214° Southwest 194 223 4,600 1,113 Climbing New York Center
Sat 03:19:14 PM 40.0886 -74.2717 261° West 220 253 5,000 629 Climbing New York Center
Sat 03:20:16 PM 40.0922 -74.3547 273° West 217 250 5,900 435 Climbing New York Center
Sat 03:21:18 PM 40.0964 -74.4397 274° West 220 253 5,900 49 Level New York Center
Sat 03:22:00 PM 40.1402 -74.7485 263° West  Level FlightAware Approximate
Sat 03:22:19 PM 40.1014 -74.5136 275° West 232 267 6,000  Level New York Center
Sat 03:23:21 PM 40.1053 -74.5983 273° West 236 272 6,000  Level New York Center
Sat 03:24:23 PM 40.0811 -74.6975 252° West 238 274 6,000 484 Level New York Center
Sat 03:25:25 PM 40.0653 -74.7692 254° West 241 277 7,000 1,597 Climbing New York Center
Sat 03:26:27 PM 40.0481 -74.8478 254° West 192 221 9,300 1,740 Climbing New York Center
Sat 03:27:05 PM 40.0333 -74.9000 250° West 208 239 9,900 367 Climbing Philadelphia TRACON
Sat 03:28:05 PM 40.0167 -74.9667 252° West 238 274 9,900 50 Level Philadelphia TRACON
Sat 03:29:05 PM 40.0000 -75.0500 255° West 252 290 10,000 28 Climbing Philadelphia TRACON
Sat 03:31:36 PM 39.9511 -75.2864 255° West 260 299 10,000  Level New York Center
Sat 03:32:38 PM 39.9339 -75.3739 256° West 245 282 10,000 1,016 Level New York Center
Sat 03:33:40 PM 39.9147 -75.4589 254° West 227 261 12,100 1,887 Climbing New York Center
Sat 03:34:42 PM 39.8997 -75.5258 254° West 207 238 13,900 1,839 Climbing New York Center
Sat 03:35:44 PM 39.8817 -75.6044 253° West 207 238 15,900 1,800 Climbing New York Center
Sat 03:36:22 PM 39.8661 -75.6433 242° Southwest 205 236 16,900 1,680 Climbing New York Center
Sat 03:37:24 PM 39.8319 -75.7061 235° Southwest 211 243 18,700 1,645 Climbing New York Center
Sat 03:38:26 PM 39.7978 -75.7708 236° Southwest 214 246 20,300 1,694 Climbing New York Center
Sat 03:39:28 PM 39.7633 -75.8322 234° Southwest 214 246 22,200 2,274 Climbing New York Center
Sat 03:40:30 PM 39.7092 -75.8689 208° Southwest 185 213 25,000 1,790 Climbing New York Center
Sat 03:41:32 PM 39.6567 -75.9050 208° Southwest 213 245 25,900 1,016 Climbing New York Center
Sat 03:42:34 PM 39.5928 -75.9481 207° Southwest 250 288 27,100 1,258 Climbing New York Center
Sat 03:43:36 PM 39.5319 -75.9881 207° Southwest 246 283 28,500 1,355 Climbing New York Center
Sat 03:44:38 PM 39.4725 -76.0292 208° Southwest 244 281 29,900 1,210 Climbing New York Center
Sat 03:45:40 PM 39.4131 -76.0700 208° Southwest 243 280 31,000 1,016 Climbing New York Center
Sat 03:46:42 PM 39.3528 -76.1117 208° Southwest 247 284 32,000 484 Climbing New York Center
Sat 03:47:44 PM 39.2878 -76.1561 208° Southwest 262 302 32,000  Level New York Center
Sat 03:48:52 PM 39.1994 -76.2156 208° Southwest 283 326 32,000  Level Washington Center
Sat 03:49:52 PM 39.1261 -76.2631 207° Southwest 296 341 32,000  Level Washington Center
Sat 03:50:53 PM 39.0467 -76.3158 207° Southwest 307 353 32,000  Level Washington Center
Sat 03:51:53 PM 38.9692 -76.3686 208° Southwest 307 353 32,000  Level Washington Center
Sat 03:52:51 PM 38.8917 -76.4183 207° Southwest 312 359 32,000  Level Washington Center
Sat 03:53:52 PM 38.8122 -76.4736 208° Southwest 312 359 32,000  Level Washington Center
Sat 03:54:52 PM 38.7347 -76.5258 208° Southwest 317 365 32,000  Level Washington Center
Sat 03:55:53 PM 38.6569 -76.5753 206° Southwest 317 365 32,000  Level Washington Center
Sat 03:56:51 PM 38.5794 -76.6247 207° Southwest 317 365 32,000  Level Washington Center
Sat 03:57:52 PM 38.4997 -76.6767 207° Southwest 317 365 32,000  Level Washington Center
Sat 03:58:53 PM 38.4200 -76.7311 208° Southwest 322 371 32,000  Level Washington Center
Sat 03:59:51 PM 38.3403 -76.7828 207° Southwest 322 371 32,000  Level Washington Center
Sat 04:00:51 PM 38.2522 -76.8344 205° Southwest 322 371 32,000  Level Washington Center
Sat 04:01:52 PM 38.1744 -76.8858 207° Southwest 322 371 32,000  Level Washington Center
Sat 04:02:52 PM 38.0947 -76.9375 207° Southwest 322 371 32,000  Level Washington Center
Sat 04:03:52 PM 38.0150 -76.9886 207° Southwest 322 371 32,000  Level Washington Center
Sat 04:04:53 PM 37.9350 -77.0397 207° Southwest 322 371 32,000  Level Washington Center
Sat 04:05:17 PM 37.9036 -77.0603 207° Southwest 322 371 32,000  Level Washington Center
Sat 04:06:17 PM 37.8217 -77.1139 207° Southwest 327 376 32,000  Level Washington Center
Sat 04:07:15 PM 37.7394 -77.1647 206° Southwest 327 376 32,000  Level Washington Center
Sat 04:08:16 PM 37.6681 -77.2106 207° Southwest 333 383 32,000  Level Washington Center
Sat 04:09:17 PM 37.5881 -77.2639 208° Southwest 327 376 32,000  Level Washington Center
Sat 04:10:15 PM 37.5081 -77.3144 207° Southwest 327 376 32,000  Level Washington Center
Sat 04:11:15 PM 37.4281 -77.3650 207° Southwest 327 376 32,000  Level Washington Center
Sat 04:12:16 PM 37.3481 -77.4153 207° Southwest 327 376 32,000  Level Washington Center
Sat 04:13:17 PM 37.2700 -77.4658 207° Southwest 327 376 32,000  Level Washington Center
Sat 04:14:17 PM 37.1922 -77.5158 207° Southwest 327 376 32,000  Level Washington Center
Sat 04:15:15 PM 37.1142 -77.5633 206° Southwest 327 376 32,000  Level Washington Center
Sat 04:16:15 PM 37.0297 -77.6161 207° Southwest 327 376 32,000  Level Washington Center
Sat 04:17:15 PM 36.9561 -77.6633 207° Southwest 321 369 32,000  Level Washington Center
Sat 04:18:16 PM 36.8800 -77.7108 207° Southwest 314 361 32,000  Level Washington Center
Sat 04:19:17 PM 36.8019 -77.7578 206° Southwest 309 356 32,000  Level Washington Center
Sat 04:20:15 PM 36.7239 -77.8050 206° Southwest 309 356 32,000  Level Washington Center
Sat 04:21:17 PM 36.6481 -77.8544 208° Southwest 309 356 32,000  Level Washington Center
Sat 04:22:15 PM 36.5700 -77.8989 205° Southwest 304 350 32,000  Level Washington Center
Sat 04:23:15 PM 36.4939 -77.9508 209° Southwest 304 350 32,000  Level Washington Center
Sat 04:24:16 PM 36.4178 -78.0003 208° Southwest 304 350 32,000  Level Washington Center
Sat 04:25:16 PM 36.3458 -78.0417 205° Southwest 309 356 32,000  Level Washington Center
Sat 04:26:16 PM 36.2697 -78.0883 206° Southwest 309 356 32,000  Level Washington Center
Sat 04:27:17 PM 36.1894 -78.1372 206° Southwest 315 362 32,000  Level Washington Center
Sat 04:28:17 PM 36.1114 -78.1861 207° Southwest 315 362 32,000  Level Washington Center
Sat 04:29:15 PM 36.0308 -78.2350 206° Southwest 320 368 32,000  Level Washington Center
Sat 04:30:16 PM 35.9486 -78.2836 206° Southwest 326 375 32,000  Level Washington Center
Sat 04:31:16 PM 35.8703 -78.3322 207° Southwest 326 375 32,000  Level Washington Center
Sat 04:32:17 PM 35.7878 -78.3806 205° Southwest 326 375 32,000  Level Washington Center
Sat 04:33:16 PM 35.7114 -78.4264 206° Southwest 326 375 32,000  Level Washington Center
Sat 04:34:16 PM 35.6311 -78.4747 206° Southwest 326 375 32,000  Level Washington Center
Sat 04:35:17 PM 35.5400 -78.5325 207° Southwest 331 381 32,000  Level Washington Center
Sat 04:36:17 PM 35.4614 -78.5808 207° Southwest 331 381 32,000  Level Washington Center
Sat 04:37:16 PM 35.3789 -78.6261 204° Southwest 324 373 32,000  Level Washington Center
Sat 04:38:16 PM 35.2942 -78.6764 206° Southwest 335 386 32,000  Level Washington Center
Sat 04:39:17 PM 35.2136 -78.7242 206° Southwest 335 386 32,000  Level Washington Center
Sat 04:40:15 PM 35.1353 -78.7719 207° Southwest 330 380 32,000  Level Washington Center
Sat 04:41:16 PM 35.0525 -78.8192 205° Southwest 330 380 32,000  Level Washington Center
Sat 04:42:14 PM 34.9719 -78.8667 206° Southwest 330 380 32,000  Level Washington Center
Sat 04:44:17 PM 34.8139 -78.9581 205° Southwest 329 379 32,000  Level Jacksonville Center
Sat 04:45:17 PM 34.7339 -79.0047 206° Southwest 335 386 32,000  Level Jacksonville Center
Sat 04:46:17 PM 34.6519 -79.0514 205° Southwest 335 386 32,000  Level Jacksonville Center
Sat 04:47:17 PM 34.5722 -79.1003 207° Southwest 335 386 32,000  Level Jacksonville Center
Sat 04:48:17 PM 34.4861 -79.1544 207° Southwest 340 391 32,000  Level Jacksonville Center
Sat 04:49:17 PM 34.4064 -79.2033 207° Southwest 340 391 32,000  Level Jacksonville Center
Sat 04:50:17 PM 34.3222 -79.2494 204° Southwest 340 391 32,000  Level Jacksonville Center
Sat 04:51:17 PM 34.2378 -79.2958 204° Southwest 340 391 32,000  Level Jacksonville Center
Sat 04:52:17 PM 34.1558 -79.3442 206° Southwest 335 386 32,000  Level Jacksonville Center
Sat 04:53:17 PM 34.0736 -79.3928 206° Southwest 335 386 32,000  Level Jacksonville Center
Sat 04:54:17 PM 33.9853 -79.4414 205° Southwest 335 386 32,000  Level Jacksonville Center
Sat 04:55:17 PM 33.9011 -79.4897 205° Southwest 335 386 32,000  Level Jacksonville Center
Sat 04:56:17 PM 33.8169 -79.5381 206° Southwest 335 386 32,000  Level Jacksonville Center
Sat 04:57:17 PM 33.7347 -79.5861 206° Southwest 340 391 32,000  Level Jacksonville Center
Sat 04:58:17 PM 33.6483 -79.6317 204° Southwest 340 391 32,000  Level Jacksonville Center
Sat 04:59:17 PM 33.5639 -79.6822 207° Southwest 340 391 32,000  Level Jacksonville Center
Sat 05:00:17 PM 33.4817 -79.7275 205° Southwest 340 391 32,000  Level Jacksonville Center
Sat 05:01:17 PM 33.3953 -79.7753 205° Southwest 340 391 32,000  Level Jacksonville Center
Sat 05:02:17 PM 33.3108 -79.8256 206° Southwest 340 391 32,000  Level Jacksonville Center
Sat 05:03:17 PM 33.2264 -79.8731 205° Southwest 340 391 32,000  Level Jacksonville Center
Sat 05:04:17 PM 33.1419 -79.9181 204° Southwest 340 391 32,000  Level Jacksonville Center
Sat 05:05:17 PM 33.0575 -79.9656 205° Southwest 340 391 32,000  Level Jacksonville Center
Sat 05:06:17 PM 32.9833 -80.0075 205° Southwest 340 391 32,000  Level Jacksonville Center
Sat 05:07:17 PM 32.9008 -80.0547 206° Southwest 340 391 32,000  Level Jacksonville Center
Sat 05:08:17 PM 32.8206 -80.0994 205° Southwest 335 386 32,000  Level Jacksonville Center
Sat 05:09:17 PM 32.7381 -80.1464 206° Southwest 335 386 32,000  Level Jacksonville Center
Sat 05:10:17 PM 32.6575 -80.1908 205° Southwest 335 386 32,000  Level Jacksonville Center
Sat 05:11:17 PM 32.5769 -80.2350 205° Southwest 335 386 32,000  Level Jacksonville Center
Sat 05:12:17 PM 32.4967 -80.2817 206° Southwest 329 379 32,000  Level Jacksonville Center
Sat 05:13:17 PM 32.4161 -80.3258 205° Southwest 324 373 32,000  Level Jacksonville Center
Sat 05:14:17 PM 32.3356 -80.3700 205° Southwest 319 367 32,000  Level Jacksonville Center
Sat 05:15:17 PM 32.2550 -80.4139 205° Southwest 319 367 32,000  Level Jacksonville Center
Sat 05:16:17 PM 32.1767 -80.4578 205° Southwest 319 367 32,000  Level Jacksonville Center
Sat 05:17:17 PM 32.0919 -80.5042 205° Southwest 314 361 32,000  Level Jacksonville Center
Sat 05:18:17 PM 32.0133 -80.5478 205° Southwest 314 361 32,000  Level Jacksonville Center
Sat 05:19:17 PM 31.9408 -80.5864 204° Southwest 314 361 32,000  Level Jacksonville Center
Sat 05:20:17 PM 31.8561 -80.6350 206° Southwest 314 361 32,000  Level Jacksonville Center
Sat 05:21:17 PM 31.7839 -80.6733 204° Southwest 319 367 32,000  Level Jacksonville Center
Sat 05:22:17 PM 31.6969 -80.7219 205° Southwest 314 361 32,000  Level Jacksonville Center
Sat 05:23:17 PM 31.6164 -80.7653 205° Southwest 319 367 32,000  Level Jacksonville Center
Sat 05:24:17 PM 31.5439 -80.8033 204° Southwest 319 367 32,000  Level Jacksonville Center
Sat 05:25:17 PM 31.4569 -80.8517 205° Southwest 319 367 32,000  Level Jacksonville Center
Sat 05:26:17 PM 31.3761 -80.8947 204° Southwest 319 367 32,000  Level Jacksonville Center
Sat 05:27:17 PM 31.2933 -80.9403 205° Southwest 319 367 32,000  Level Jacksonville Center
Sat 05:28:17 PM 31.2147 -80.9808 204° Southwest 319 367 32,000  Level Jacksonville Center
Sat 05:29:17 PM 31.1319 -81.0261 205° Southwest 319 367 32,000  Level Jacksonville Center
Sat 05:30:17 PM 31.0511 -81.0667 203° Southwest 313 360 32,000  Level Jacksonville Center
Sat 05:31:17 PM 30.9703 -81.1117 206° Southwest 319 367 32,000  Level Jacksonville Center
Sat 05:32:17 PM 30.8894 -81.1544 204° Southwest 319 367 32,000  Level Jacksonville Center
Sat 05:33:17 PM 30.8086 -81.1969 204° Southwest 319 367 32,000  Level Jacksonville Center
Sat 05:34:17 PM 30.7256 -81.2397 204° Southwest 319 367 32,000  Level Jacksonville Center
Sat 05:35:17 PM 30.6447 -81.2844 205° Southwest 319 367 32,000  Level Jacksonville Center
Sat 05:36:17 PM 30.5617 -81.3269 204° Southwest 319 367 32,000  Level Jacksonville Center
Sat 05:37:17 PM 30.4808 -81.3692 204° Southwest 319 367 32,000  Level Jacksonville Center
Sat 05:38:17 PM 30.3978 -81.4139 205° Southwest 319 367 32,000  Level Jacksonville Center
Sat 05:39:17 PM 30.3128 -81.4561 203° Southwest 324 373 32,000  Level Jacksonville Center
Sat 05:40:17 PM 30.2297 -81.5006 205° Southwest 329 379 32,000  Level Jacksonville Center
Sat 05:41:17 PM 30.1467 -81.5425 204° Southwest 329 379 32,000 -200 Level Jacksonville Center
Sat 05:42:17 PM 30.0636 -81.5894 206° Southwest 334 384 31,600 -700 Descending Jacksonville Center
Sat 05:43:17 PM 29.9742 -81.6361 204° Southwest 340 391 30,600 -1,000 Descending Jacksonville Center
Sat 05:44:17 PM 29.8808 -81.6853 205° Southwest 354 407 29,600 -950 Descending Jacksonville Center
Sat 05:45:17 PM 29.7872 -81.7344 205° Southwest 359 413 28,700 -950 Descending Jacksonville Center
Sat 05:46:17 PM 29.6917 -81.7808 203° Southwest 364 419 27,700 -1,000 Descending Jacksonville Center
Sat 05:47:17 PM 29.5983 -81.8319 205° Southwest 369 425 26,700 -1,000 Descending Jacksonville Center
Sat 05:48:17 PM 29.5067 -81.8808 205° Southwest 374 430 25,700 -1,350 Descending Jacksonville Center
Sat 05:49:17 PM 29.4172 -81.9269 204° Southwest 369 425 24,000 -1,900 Descending Jacksonville Center
Sat 05:50:17 PM 29.3300 -81.9708 204° Southwest 359 413 21,900 -2,050 Descending Jacksonville Center
Sat 05:51:17 PM 29.2383 -82.0167 204° Southwest 359 413 19,900 -2,000 Descending Jacksonville Center
Sat 05:52:17 PM 29.1511 -82.0603 204° Southwest 354 407 17,900 -2,050 Descending Jacksonville Center
Sat 05:53:17 PM 29.0678 -82.1014 203° Southwest 354 407 15,800 -2,100 Descending Jacksonville Center
Sat 05:54:17 PM 28.9889 -82.1425 205° Southwest 340 391 13,700 -1,950 Descending Jacksonville Center
Sat 05:55:17 PM 28.9139 -82.1833 205° Southwest 328 377 11,900 -775 Descending Jacksonville Center
Sat 05:57:46 PM 28.7167 -82.2833 204° Southwest 300 345 11,000 -258 Descending Tampa TRACON
Sat 05:58:46 PM 28.6500 -82.3167 204° Southwest 298 343 11,000 -550 Level Tampa TRACON
Sat 05:59:46 PM 28.5833 -82.3833 221° Southwest 270 311 9,900 -1,200 Descending Tampa TRACON
Sat 06:00:46 PM 28.5333 -82.4500 230° Southwest 282 325 8,600 -1,600 Descending Tampa TRACON
Sat 06:01:46 PM 28.4833 -82.5167 230° Southwest 278 320 6,700 -1,900 Descending Tampa TRACON
Sat 06:02:46 PM 28.4333 -82.5833 230° Southwest 278 320 4,800 -1,895 Descending Tampa TRACON
Sat 06:03:40 PM 28.3833 -82.6333 221° Southwest 278 320 3,100 -947 Descending Tampa TRACON
Sat 06:04:40 PM 28.3333 -82.6833 221° Southwest 254 292 3,000 -48 Descending Tampa TRACON
Sat 06:05:46 PM 28.2500 -82.7167 199° South 254 292 3,000  Level Tampa TRACON
Sat 06:06:52 PM 28.1667 -82.7167 180° South 250 288 3,000 -190 Level Tampa TRACON
Sat 06:07:52 PM 28.1000 -82.7000 168° South 243 280 2,600 -595 Descending Tampa TRACON
Sat 06:08:53 PM 28.0500 -82.7000 180° South 228 262 1,800 -574 Descending Tampa TRACON
Sat 06:09:47 PM 28.0000 -82.7000 180° South 145 167 1,500 -526 Descending Tampa TRACON
Sat 06:10:47 PM 27.9667 -82.7000 180° South 119 137 800 -700 Descending Tampa TRACON

Login

Don't have an account? Register now (free) for customized features, flight alerts, and more!